| time (UTC) | temp F | wind direction | speed knots | gust knots | rain 1hr in | rain 24hr in | rain mn in | humidity % | barometer mb |
| 20260507212431 | 49 | 0 | 0.0 | 0.0 | 0.00 | 0.00 | 0.00 | 75 | |
| 20260507211931 | 49 | 0 | 0.0 | 0.0 | 0.00 | 0.00 | 0.00 | 75 | |
| 20260507211431 | 49 | 0 | 0.0 | 0.0 | 0.00 | 0.00 | 0.00 | 75 | |
| 20260507210430 | 50 | 0 | 0.0 | 0.0 | 0.00 | 0.00 | 0.00 | 74 | |
| 20260507205430 | 50 | 0 | 0.0 | 0.0 | 0.00 | 0.00 | 0.00 | 74 | |
| 20260507204929 | 50 | 0 | 0.0 | 0.0 | 0.00 | 0.00 | 0.00 | 74 | |
| 20260507204429 | 50 | 0 | 0.0 | 0.0 | 0.00 | 0.00 | 0.00 | 73 | |
| 20260507203929 | 50 | 0 | 0.0 | 0.0 | 0.00 | 0.00 | 0.00 | 73 | |
| 20260507203428 | 50 | 0 | 0.0 | 0.0 | 0.00 | 0.00 | 0.00 | 73 | |
| 20260507201927 | 51 | 0 | 0.0 | 0.0 | 0.00 | 0.00 | 0.00 | 72 | |
| 20260507201427 | 52 | 0 | 0.0 | 0.0 | 0.00 | 0.00 | 0.00 | 71 | |
| 20260507200927 | 52 | 0 | 0.0 | 0.0 | 0.00 | 0.00 | 0.00 | 72 | |
| 20260507200427 | 52 | 0 | 0.0 | 0.0 | 0.00 | 0.00 | 0.00 | 72 | |
| 20260507193925 | 52 | 0 | 0.0 | 0.0 | 0.00 | 0.00 | 0.00 | 71 | |
| 20260507192925 | 53 | 0 | 0.0 | 0.0 | 0.00 | 0.00 | 0.00 | 71 | |
| 20260507192425 | 53 | 0 | 0.0 | 0.0 | 0.00 | 0.00 | 0.00 | 70 | |
| 20260507191424 | 53 | 0 | 0.0 | 0.0 | 0.00 | 0.00 | 0.00 | 69 | |
| 20260507185923 | 53 | 0 | 0.0 | 0.0 | 0.00 | 0.00 | 0.00 | 68 | |
| 20260507185423 | 53 | 0 | 0.0 | 0.0 | 0.00 | 0.00 | 0.00 | 68 | |
| 20260507184923 | 53 | 0 | 0.0 | 0.0 | 0.00 | 0.00 | 0.00 | 68 | |
| 20260507184422 | 54 | 0 | 0.0 | 0.0 | 0.00 | 0.00 | 0.00 | 67 | |
| 20260507183922 | 53 | 0 | 0.0 | 0.0 | 0.00 | 0.00 | 0.00 | 67 | |
| 20260507183422 | 54 | 0 | 0.0 | 0.0 | 0.00 | 0.00 | 0.00 | 67 | |
| 20260507182921 | 54 | 0 | 0.0 | 0.0 | 0.00 | 0.00 | 0.00 | 67 | |
| 20260507182421 | 54 | 0 | 0.0 | 0.0 | 0.00 | 0.00 | 0.00 | 66 | |
| 20260507181921 | 54 | 0 | 0.0 | 0.0 | 0.00 | 0.00 | 0.00 | 66 | |
| 20260507181421 | 54 | 0 | 0.0 | 0.0 | 0.00 | 0.00 | 0.00 | 66 | |
| 20260507180920 | 54 | 0 | 0.0 | 0.0 | 0.00 | 0.00 | 0.00 | 66 | |
| 20260507180420 | 54 | 0 | 0.0 | 0.0 | 0.00 | 0.00 | 0.00 | 65 | |
| 20260507175920 | 55 | 0 | 0.0 | 0.0 | 0.00 | 0.00 | 0.00 | 65 | |
| 20260507175419 | 55 | 312 | 0.0 | 1.7 | 0.00 | 0.00 | 0.00 | 65 | |
| 20260507174419 | 55 | 0 | 0.0 | 0.0 | 0.00 | 0.00 | 0.00 | 64 | |
| 20260507173418 | 55 | 345 | 0.0 | 0.9 | 0.00 | 0.00 | 0.00 | 64 | |
| 20260507172918 | 55 | 87 | 0.9 | 2.6 | 0.00 | 0.00 | 0.00 | 63 | |
| 20260507171417 | 56 | 0 | 0.0 | 0.0 | 0.00 | 0.00 | 0.00 | 62 | |
| 20260507170917 | 56 | 0 | 0.0 | 0.0 | 0.00 | 0.00 | 0.00 | 62 | |
| 20260507165416 | 57 | 0 | 0.0 | 0.0 | 0.00 | 0.00 | 0.00 | 61 | |
| 20260507163915 | 57 | 332 | 0.0 | 2.6 | 0.00 | 0.00 | 0.00 | 61 | |
| 20260507163415 | 57 | 46 | 0.0 | 2.6 | 0.00 | 0.00 | 0.00 | 61 | |
| 20260507162915 | 57 | 72 | 0.0 | 2.6 | 0.00 | 0.00 | 0.00 | 60 | |
| 20260507162414 | 57 | 37 | 0.0 | 2.6 | 0.00 | 0.00 | 0.00 | 59 | |
| 20260507161914 | 57 | 343 | 0.9 | 3.5 | 0.00 | 0.00 | 0.00 | 59 | |
| 20260507160413 | 58 | 343 | 0.0 | 2.6 | 0.00 | 0.00 | 0.00 | 58 | |
| 20260507155413 | 59 | 87 | 0.0 | 1.7 | 0.00 | 0.00 | 0.00 | 57 | |
| 20260507154912 | 59 | 53 | 0.9 | 2.6 | 0.00 | 0.00 | 0.00 | 57 | |
| 20260507153912 | 59 | 49 | 0.9 | 3.5 | 0.00 | 0.00 | 0.00 | 55 | |
| 20260507152911 | 59 | 56 | 1.7 | 3.5 | 0.00 | 0.00 | 0.00 | 55 | |
| 20260507151911 | 60 | 41 | 0.9 | 4.3 | 0.00 | 0.00 | 0.00 | 53 | |
| 20260507151410 | 60 | 304 | 0.9 | 4.3 | 0.00 | 0.00 | 0.00 | 54 | |
| 20260507150910 | 61 | 87 | 0.9 | 4.3 | 0.00 | 0.00 | 0.00 | 53 | |
| 20260507145910 | 61 | 93 | 0.9 | 3.5 | 0.00 | 0.00 | 0.00 | 53 | |
| 20260507145409 | 61 | 18 | 1.7 | 4.3 | 0.00 | 0.00 | 0.00 | 52 | |
| 20260507143908 | 61 | 39 | 0.0 | 2.6 | 0.00 | 0.00 | 0.00 | 55 | |
| 20260507143408 | 61 | 288 | 0.0 | 1.7 | 0.00 | 0.00 | 0.00 | 55 | |
| 20260507142908 | 61 | 323 | 0.9 | 3.5 | 0.00 | 0.00 | 0.00 | 54 | |
| 20260507141907 | 61 | 45 | 0.9 | 3.5 | 0.00 | 0.00 | 0.00 | 54 | |
| 20260507141407 | 62 | 46 | 0.0 | 2.6 | 0.00 | 0.00 | 0.00 | 52 | |
| 20260507140407 | 61 | 93 | 0.0 | 4.3 | 0.00 | 0.00 | 0.00 | 52 | |
| 20260507132404 | 61 | 90 | 1.7 | 7.8 | 0.00 | 0.00 | 0.00 | 54 | |
| 20260507131404 | 61 | 98 | 1.7 | 5.2 | 0.00 | 0.00 | 0.00 | 54 | |
| 20260507130403 | 60 | 65 | 0.9 | 3.5 | 0.00 | 0.00 | 0.00 | 57 | |
| 20260507125903 | 60 | 77 | 0.9 | 5.2 | 0.00 | 0.00 | 0.00 | 57 | |
| 20260507124402 | 59 | 38 | 0.9 | 3.5 | 0.00 | 0.00 | 0.00 | 59 | |
| 20260507123902 | 58 | 44 | 1.7 | 4.3 | 0.00 | 0.00 | 0.00 | 58 | |
| 20260507122901 | 59 | 56 | 0.9 | 3.5 | 0.00 | 0.00 | 0.00 | 59 | |
| 20260507122401 | 58 | 68 | 0.9 | 3.5 | 0.00 | 0.00 | 0.00 | 59 | |
| 20260507120900 | 59 | 11 | 0.9 | 2.6 | 0.00 | 0.00 | 0.00 | 58 | |
| 20260507120400 | 59 | 52 | 1.7 | 4.3 | 0.00 | 0.00 | 0.00 | 56 | |
| 20260507115359 | 59 | 94 | 0.9 | 3.5 | 0.00 | 0.00 | 0.00 | 58 | |
| 20260507114859 | 59 | 356 | 0.0 | 4.3 | 0.00 | 0.00 | 0.00 | 58 | |
| 20260507114359 | 59 | 1 | 0.9 | 2.6 | 0.00 | 0.00 | 0.00 | 58 | |
| 20260507113858 | 59 | 135 | 0.9 | 3.5 | 0.00 | 0.00 | 0.00 | 58 | |
| 20260507113358 | 59 | 79 | 0.9 | 3.5 | 0.00 | 0.00 | 0.00 | 58 | |
| 20260507110857 | 58 | 84 | 2.6 | 7.0 | 0.00 | 0.00 | 0.00 | 61 | |
| 20260507110356 | 58 | 105 | 1.7 | 5.2 | 0.00 | 0.00 | 0.00 | 63 | |
| 20260507105356 | 57 | 48 | 2.6 | 6.1 | 0.00 | 0.00 | 0.00 | 60 | |
| 20260507104855 | 57 | 17 | 2.6 | 6.1 | 0.00 | 0.00 | 0.00 | 64 | |
| 20260507104355 | 56 | 38 | 1.7 | 4.3 | 0.00 | 0.00 | 0.00 | 64 | |
| 20260507103855 | 55 | 76 | 1.7 | 4.3 | 0.00 | 0.00 | 0.00 | 66 | |
| 20260507103355 | 55 | 60 | 2.6 | 5.2 | 0.00 | 0.00 | 0.00 | 68 | |
| 20260507101854 | 53 | 90 | 1.7 | 3.5 | 0.00 | 0.00 | 0.00 | 71 | |
| 20260507100853 | 52 | 46 | 1.7 | 3.5 | 0.00 | 0.00 | 0.00 | 67 | |
| 20260507095853 | 53 | 359 | 0.9 | 3.5 | 0.00 | 0.00 | 0.00 | 72 | |
| 20260507095352 | 53 | 45 | 0.9 | 3.5 | 0.00 | 0.00 | 0.00 | 70 | |
| 20260507094852 | 53 | 82 | 0.9 | 4.3 | 0.00 | 0.00 | 0.00 | 72 | |
| 20260507094352 | 53 | 86 | 1.7 | 4.3 | 0.00 | 0.00 | 0.00 | 72 | |
| 20260507093851 | 52 | 35 | 1.7 | 6.1 | 0.00 | 0.00 | 0.00 | 73 | |
| 20260507092851 | 52 | 94 | 2.6 | 7.0 | 0.00 | 0.00 | 0.00 | 74 | |
| 20260507092351 | 52 | 68 | 1.7 | 5.2 | 0.00 | 0.00 | 0.00 | 76 | |
| 20260507091850 | 51 | 302 | 0.9 | 4.3 | 0.00 | 0.00 | 0.00 | 77 | |
| 20260507091350 | 51 | 105 | 1.7 | 5.2 | 0.00 | 0.00 | 0.00 | 77 | |
| 20260507090850 | 50 | 76 | 0.9 | 3.5 | 0.00 | 0.00 | 0.00 | 78 | |
| 20260507090350 | 50 | 87 | 0.9 | 3.5 | 0.00 | 0.00 | 0.00 | 76 | |
| 20260507085849 | 50 | 53 | 0.9 | 3.5 | 0.00 | 0.00 | 0.00 | 80 | |
| 20260507085349 | 49 | 63 | 1.7 | 4.3 | 0.00 | 0.00 | 0.00 | 80 | |
| 20260507084849 | 49 | 70 | 0.9 | 3.5 | 0.00 | 0.00 | 0.00 | 80 | |
| 20260507084349 | 49 | 15 | 1.7 | 3.5 | 0.00 | 0.00 | 0.00 | 81 | |
| 20260507083848 | 49 | 110 | 1.7 | 4.3 | 0.00 | 0.00 | 0.00 | 82 | |
| 20260507083348 | 49 | 326 | 0.9 | 3.5 | 0.00 | 0.00 | 0.00 | 81 | |
| 20260507082848 | 49 | 308 | 1.7 | 6.1 | 0.00 | 0.00 | 0.00 | 82 | |
| 20260507082347 | 49 | 297 | 0.9 | 2.6 | 0.00 | 0.00 | 0.00 | 84 | |
| 20260507081847 | 48 | 305 | 0.9 | 3.5 | 0.00 | 0.00 | 0.00 | 85 | |
| 20260507081347 | 48 | 62 | 0.9 | 3.5 | 0.00 | 0.00 | 0.00 | 86 | |
| 20260507080846 | 48 | 83 | 0.9 | 4.3 | 0.00 | 0.00 | 0.00 | 86 | |
| 20260507080346 | 48 | 94 | 0.9 | 3.5 | 0.00 | 0.00 | 0.00 | 84 | |
| 20260507075346 | 47 | 101 | 0.9 | 2.6 | 0.00 | 0.00 | 0.00 | 84 | |
| 20260507074845 | 47 | 84 | 0.0 | 1.7 | 0.00 | 0.00 | 0.00 | 85 | |
| 20260507074345 | 47 | 0 | 0.0 | 0.0 | 0.00 | 0.00 | 0.00 | 85 | |
| 20260507072844 | 46 | 0 | 0.0 | 0.0 | 0.00 | 0.00 | 0.00 | 86 | |
| 20260507071343 | 46 | 0 | 0.0 | 0.0 | 0.00 | 0.00 | 0.00 | 87 | |
| 20260507070843 | 46 | 0 | 0.0 | 0.0 | 0.00 | 0.00 | 0.00 | 87 | |
| 20260507070343 | 45 | 0 | 0.0 | 0.0 | 0.00 | 0.00 | 0.00 | 87 | |
| 20260507065843 | 45 | 0 | 0.0 | 0.0 | 0.00 | 0.00 | 0.00 | 89 | |
| 20260507065342 | 45 | 308 | 0.0 | 0.9 | 0.00 | 0.00 | 0.00 | 89 | |
| 20260507064842 | 45 | 0 | 0.0 | 0.0 | 0.00 | 0.00 | 0.00 | 89 | |
| 20260507063842 | 44 | 0 | 0.0 | 0.0 | 0.00 | 0.00 | 0.00 | 90 | |
| 20260507063341 | 44 | 0 | 0.0 | 0.0 | 0.00 | 0.00 | 0.00 | 90 | |
| 20260507062841 | 44 | 0 | 0.0 | 0.0 | 0.00 | 0.00 | 0.00 | 90 | |
| 20260507062340 | 44 | 0 | 0.0 | 0.0 | 0.00 | 0.00 | 0.00 | 90 | |
| 20260507061840 | 44 | 0 | 0.0 | 0.0 | 0.00 | 0.00 | 0.00 | 90 | |
| 20260507061340 | 44 | 0 | 0.0 | 0.0 | 0.00 | 0.00 | 0.00 | 90 | |
| 20260507060858 | 43 | 101 | 0.0 | 0.0 | 0.00 | 0.00 | 0.00 | 90 | |
| 20260507060339 | 43 | 100 | 0.0 | 1.7 | 0.00 | 0.00 | 0.00 | 90 | |
| 20260507055839 | 43 | 39 | 0.0 | 1.7 | 0.00 | 0.00 | 0.00 | 90 | |
| 20260507055339 | 43 | 0 | 0.0 | 0.0 | 0.00 | 0.00 | 0.00 | 90 | |
| 20260507054839 | 43 | 0 | 0.0 | 0.0 | 0.00 | 0.00 | 0.00 | 90 | |
| 20260507054338 | 44 | 0 | 0.0 | 0.0 | 0.00 | 0.00 | 0.00 | 90 | |
| 20260507053838 | 43 | 0 | 0.0 | 0.0 | 0.00 | 0.00 | 0.00 | 90 | |
| 20260507052837 | 42 | 0 | 0.0 | 0.0 | 0.00 | 0.00 | 0.00 | 90 | |
| 20260507052337 | 42 | 0 | 0.0 | 0.0 | 0.00 | 0.00 | 0.00 | 90 | |
| 20260507051337 | 42 | 0 | 0.0 | 0.0 | 0.00 | 0.00 | 0.00 | 89 | |
| 20260507050836 | 42 | 0 | 0.0 | 0.0 | 0.00 | 0.00 | 0.00 | 89 | |
| 20260507050336 | 42 | 0 | 0.0 | 0.0 | 0.00 | 0.00 | 0.00 | 89 | |
| 20260507045836 | 42 | 0 | 0.0 | 0.0 | 0.00 | 0.00 | 0.00 | 89 | |
| 20260507044835 | 42 | 0 | 0.0 | 0.0 | 0.00 | 0.00 | 0.00 | 88 | |
| 20260507044335 | 42 | 0 | 0.0 | 0.0 | 0.00 | 0.00 | 0.00 | 88 | |
| 20260507043835 | 42 | 0 | 0.0 | 0.0 | 0.00 | 0.00 | 0.00 | 88 | |
| 20260507042834 | 41 | 0 | 0.0 | 0.0 | 0.00 | 0.00 | 0.00 | 89 | |
| 20260507041833 | 42 | 0 | 0.0 | 0.0 | 0.00 | 0.00 | 0.00 | 88 | |
| 20260507041333 | 42 | 0 | 0.0 | 0.0 | 0.00 | 0.00 | 0.00 | 89 | |
| 20260507040833 | 42 | 0 | 0.0 | 0.0 | 0.00 | 0.00 | 0.00 | 88 | |
| 20260507035832 | 42 | 0 | 0.0 | 0.0 | 0.00 | 0.00 | 0.00 | 88 | |
| 20260507033831 | 42 | 0 | 0.0 | 0.0 | 0.00 | 0.00 | 0.00 | 88 | |
| 20260507032831 | 42 | 0 | 0.0 | 0.0 | 0.00 | 0.00 | 0.00 | 89 | |
| 20260507032330 | 42 | 0 | 0.0 | 0.0 | 0.00 | 0.00 | 0.00 | 89 | |
| 20260507031830 | 42 | 0 | 0.0 | 0.0 | 0.00 | 0.00 | 0.00 | 88 | |
| 20260507031330 | 42 | 0 | 0.0 | 0.0 | 0.00 | 0.00 | 0.00 | 88 | |
| 20260507030829 | 42 | 0 | 0.0 | 0.0 | 0.00 | 0.00 | 0.00 | 89 | |
| 20260507030329 | 42 | 0 | 0.0 | 0.0 | 0.00 | 0.00 | 0.00 | 89 | |
| 20260507025829 | 42 | 0 | 0.0 | 0.0 | 0.00 | 0.00 | 0.00 | 89 | |
| 20260507025329 | 42 | 0 | 0.0 | 0.0 | 0.00 | 0.00 | 0.00 | 89 | |
| 20260507024828 | 42 | 0 | 0.0 | 0.0 | 0.00 | 0.00 | 0.00 | 88 | |
| 20260507022827 | 42 | 0 | 0.0 | 0.0 | 0.00 | 0.00 | 0.00 | 89 | |
| 20260507022327 | 41 | 0 | 0.0 | 0.0 | 0.00 | 0.00 | 0.00 | 89 | |
| 20260507021326 | 42 | 0 | 0.0 | 0.0 | 0.00 | 0.00 | 0.00 | 88 | |
| 20260507020326 | 42 | 0 | 0.0 | 0.0 | 0.00 | 0.00 | 0.00 | 88 | |
| 20260507015825 | 41 | 0 | 0.0 | 0.0 | 0.00 | 0.00 | 0.00 | 89 | |
| 20260507015325 | 41 | 0 | 0.0 | 0.0 | 0.00 | 0.00 | 0.00 | 88 | |
| 20260507013824 | 41 | 0 | 0.0 | 0.0 | 0.00 | 0.00 | 0.00 | 88 | |
| 20260507013324 | 41 | 0 | 0.0 | 0.0 | 0.00 | 0.00 | 0.00 | 89 | |
| 20260507012824 | 41 | 0 | 0.0 | 0.0 | 0.00 | 0.00 | 0.00 | 88 | |
| 20260507011823 | 41 | 0 | 0.0 | 0.0 | 0.00 | 0.00 | 0.00 | 88 | |
| 20260507011323 | 41 | 0 | 0.0 | 0.0 | 0.00 | 0.00 | 0.00 | 88 | |
| 20260507010322 | 41 | 0 | 0.0 | 0.0 | 0.00 | 0.00 | 0.00 | 88 | |
| 20260507005822 | 41 | 0 | 0.0 | 0.0 | 0.00 | 0.00 | 0.00 | 88 | |
| 20260507004821 | 41 | 0 | 0.0 | 0.0 | 0.00 | 0.00 | 0.00 | 88 | |
| 20260507004321 | 41 | 0 | 0.0 | 0.0 | 0.00 | 0.00 | 0.00 | 88 | |
| 20260507003821 | 41 | 0 | 0.0 | 0.0 | 0.00 | 0.00 | 0.00 | 88 | |
| 20260507003321 | 41 | 0 | 0.0 | 0.0 | 0.00 | 0.00 | 0.00 | 89 | |
| 20260507002820 | 41 | 0 | 0.0 | 0.0 | 0.00 | 0.00 | 0.00 | 88 | |
| 20260507002320 | 41 | 0 | 0.0 | 0.0 | 0.00 | 0.00 | 0.00 | 88 | |
| 20260507001820 | 41 | 0 | 0.0 | 0.0 | 0.00 | 0.00 | 0.00 | 88 | |
| 20260507001320 | 41 | 0 | 0.0 | 0.0 | 0.00 | 0.00 | 0.00 | 87 | |
| 20260507000819 | 40 | 0 | 0.0 | 0.0 | 0.00 | 0.00 | 0.00 | 87 | |
| 20260507000321 | 41 | 0 | 0.0 | 0.0 | 0.00 | 0.00 | 0.00 | 87 | |
| 20260506235318 | 41 | 0 | 0.0 | 0.0 | 0.00 | 0.00 | 0.00 | 88 | |
| 20260506234818 | 41 | 242 | 0.0 | 0.9 | 0.00 | 0.00 | 0.00 | 87 | |
| 20260506233818 | 41 | 0 | 0.0 | 0.0 | 0.00 | 0.00 | 0.00 | 87 | |
| 20260506233317 | 41 | 0 | 0.0 | 0.0 | 0.00 | 0.00 | 0.00 | 87 | |
| 20260506232817 | 41 | 0 | 0.0 | 0.0 | 0.00 | 0.00 | 0.00 | 87 | |
| 20260506232317 | 41 | 0 | 0.0 | 0.0 | 0.00 | 0.00 | 0.00 | 86 | |
| 20260506231816 | 41 | 0 | 0.0 | 0.0 | 0.00 | 0.00 | 0.00 | 86 | |
| 20260506231316 | 41 | 0 | 0.0 | 0.0 | 0.00 | 0.00 | 0.00 | 87 | |
| 20260506230816 | 41 | 0 | 0.0 | 0.0 | 0.00 | 0.00 | 0.00 | 86 | |
| 20260506230316 | 41 | 0 | 0.0 | 0.0 | 0.00 | 0.00 | 0.00 | 86 | |
| 20260506225815 | 41 | 0 | 0.0 | 0.0 | 0.00 | 0.00 | 0.00 | 86 | |
| 20260506225315 | 41 | 224 | 0.0 | 1.7 | 0.00 | 0.00 | 0.08 | 85 | |
| 20260506224815 | 41 | 0 | 0.0 | 0.0 | 0.00 | 0.00 | 0.08 | 86 | |
| 20260506224315 | 41 | 0 | 0.0 | 0.0 | 0.00 | 0.00 | 0.08 | 85 | |
| 20260506223814 | 41 | 0 | 0.0 | 0.0 | 0.00 | 0.00 | 0.08 | 85 | |
| 20260506223314 | 41 | 0 | 0.0 | 0.0 | 0.00 | 0.00 | 0.08 | 84 | |
| 20260506222313 | 41 | 0 | 0.0 | 0.0 | 0.00 | 0.00 | 0.08 | 84 | |
| 20260506221813 | 41 | 0 | 0.0 | 0.0 | 0.00 | 0.00 | 0.08 | 84 | |
| 20260506221313 | 41 | 0 | 0.0 | 0.0 | 0.00 | 0.00 | 0.08 | 84 | |
| 20260506220812 | 41 | 0 | 0.0 | 0.0 | 0.00 | 0.00 | 0.08 | 84 | |
| 20260506220312 | 41 | 0 | 0.0 | 0.0 | 0.00 | 0.00 | 0.08 | 84 | |
| 20260506215312 | 42 | 0 | 0.0 | 0.0 | 0.00 | 0.00 | 0.08 | 84 | |
| 20260506214811 | 42 | 0 | 0.0 | 0.0 | 0.00 | 0.00 | 0.08 | 84 | |
| 20260506213811 | 42 | 0 | 0.0 | 0.0 | 0.00 | 0.00 | 0.08 | 83 | |
| 20260506213310 | 42 | 0 | 0.0 | 0.0 | 0.00 | 0.00 | 0.08 | 83 |